Latest Weather Observations for Sheoaks

IDV60901

Issued at 4:51 am EDT Wednesday 13 November 2019 (issued every 10 minutes, with the page automatically refreshed every 10 minutes)

About weather observations | Map of Melbourne area stations | Latest observations for Melbourne area | Other Formats
Station Details ID: 087168 Name: SHEOAKS Lat: -37.91 Lon: 144.13 Height: 236.7 m
Data from the previous 72 hours. | See also: Recent months at Sheoaks
Date/Time
EDT
Temp
°C
App
Temp
°C
Dew
Point
°C
Rel
Hum
%
Delta-T
°C
Wind Press
QNH
hPa
Press
MSL
hPa
Rain since
9am
mm
Dir  Spd
km/h
Gust
km/h
Spd
kts
Gust
kts
13/04:30am 7.0 2.3 5.3 89 0.8 WNW 19 28 10 15 1014.6 1014.3 1.8
13/04:00am 6.7 2.4 5.2 90 0.7 WNW 17 26 9 14 1014.8 1014.5 1.8
13/03:30am 6.7 1.8 5.0 89 0.8 WNW 20 32 11 17 1015.0 1014.7 1.8
13/03:00am 6.7 1.8 4.9 88 0.8 WNW 20 32 11 17 1015.2 1014.9 1.8
13/02:30am 6.7 1.9 4.9 88 0.8 WNW 19 28 10 15 1015.4 1015.1 1.8
13/02:00am 6.8 2.1 5.0 88 0.8 W 19 32 10 17 1015.6 1015.3 1.8
13/01:30am 6.5 1.5 4.7 88 0.8 WNW 20 33 11 18 1015.6 1015.3 1.8
13/01:00am 6.7 1.3 4.7 87 0.9 W 22 37 12 20 1015.6 1015.3 1.8
13/12:30am 6.8 1.4 4.5 85 1.0 W 22 33 12 18 1015.7 1015.4 1.6
13/12:00am 6.9 1.4 4.2 83 1.2 W 22 37 12 20 1015.4 1015.1 1.6
 
Date/Time
EDT
Temp
°C
App
Temp
°C
Dew
Point
°C
Rel
Hum
%
Delta-T
°C
Wind Press
QNH
hPa
Press
MSL
hPa
Rain since
9am
mm
Dir  Spd
km/h
Gust
km/h
Spd
kts
Gust
kts
12/11:30pm 6.7 1.2 3.9 82 1.2 WNW 22 39 12 21 1015.3 1015.0 1.6
12/11:00pm 6.7 1.2 3.9 82 1.2 W 22 35 12 19 1015.4 1015.1 1.6
12/10:30pm 6.9 1.4 3.9 81 1.3 W 22 32 12 17 1015.5 1015.2 1.6
12/10:00pm 6.7 1.2 4.0 83 1.2 W 22 35 12 19 1015.4 1015.1 1.6
12/09:30pm 7.0 1.5 4.0 81 1.3 W 22 39 12 21 1014.8 1014.5 1.6
12/09:00pm 7.1 1.7 4.6 84 1.1 W 22 37 12 20 1014.2 1013.9 1.6
12/08:30pm 7.1 2.2 4.9 86 1.0 W 20 32 11 17 1013.8 1013.5 1.6
12/08:00pm 7.5 2.3 5.3 86 1.0 W 22 37 12 20 1013.5 1013.2 1.6
12/07:48pm 7.6 1.2 5.1 84 1.1 WSW 28 56 15 30 1013.5 1013.2 1.6
12/07:30pm 8.0 2.8 5.6 85 1.1 W 22 33 12 18 1013.0 1012.7 1.6
12/07:00pm 7.6 1.6 5.2 85 1.1 W 26 46 14 25 1012.6 1012.3 1.6
12/06:42pm 8.6 2.2 5.4 80 1.5 W 28 65 15 35 1012.2 1011.8 1.6
12/06:30pm 8.8 3.8 6.4 85 1.1 W 22 37 12 20 1011.9 1011.5 1.6
12/06:13pm 8.4 2.0 5.3 81 1.4 W 28 54 15 29 1011.8 1011.4 1.4
12/06:00pm 9.8 4.8 6.3 79 1.6 W 22 37 12 20 1011.3 1011.0 0.8
12/05:35pm 9.9 3.5 5.3 73 2.1 W 28 50 15 27 1011.6 1011.2 0.8
12/05:30pm 10.1 4.2 5.9 75 2.0 W 26 46 14 25 1011.3 1011.0 0.8
12/05:00pm 10.0 1.8 4.8 70 2.4 WSW 37 65 20 35 1010.9 1010.6 0.8
12/04:30pm 12.3 4.9 3.8 56 3.9 WSW 32 54 17 29 1010.0 1009.7 0.8
12/04:00pm 12.7 5.5 4.9 59 3.6 WSW 32 54 17 29 1009.9 1009.6 0.8
12/03:51pm 12.5 6.2 5.9 64 3.1 W 28 48 15 26 1009.9 1009.6 0.8
12/03:30pm 10.9 5.5 6.3 73 2.2 W 24 43 13 23 1009.9 1009.6 0.8
12/03:00pm 11.3 6.3 6.6 73 2.3 W 22 39 12 21 1010.0 1009.7 0.6
12/02:30pm 13.0 5.9 5.4 60 3.6 W 32 52 17 28 1009.9 1009.6 0.4
12/02:00pm 12.5 6.1 7.0 69 2.7 W 30 52 16 28 1009.9 1009.6 0.4
12/01:30pm 9.5 2.6 4.7 72 2.2 W 30 59 16 32 1010.2 1009.9 0.4
12/01:00pm 12.5 6.1 5.0 60 3.5 WSW 28 48 15 26 1009.8 1009.5 0.0
12/12:39pm 12.6 6.2 5.1 60 3.5 W 28 50 15 27 1009.8 1009.5 0.0
12/12:30pm 13.1 6.9 6.0 62 3.4 W 28 43 15 23 1009.7 1009.4 0.0
12/12:10pm 11.4 4.9 4.6 63 3.1 W 28 48 15 26 1009.9 1009.6 0.0
12/12:00pm 12.8 8.1 6.2 64 3.2 WSW 20 32 11 17 1009.9 1009.6 0.0
12/11:47am 11.1 4.6 4.6 64 3.0 WSW 28 46 15 25 1009.9 1009.6 0.0
12/11:30am 12.2 6.1 2.6 52 4.2 WSW 24 39 13 21 1009.6 1009.3 0.0
12/11:00am 12.2 5.5 3.4 55 4.0 W 28 43 15 23 1009.5 1009.2 0.0
12/10:30am 10.7 5.2 4.0 63 3.0 WSW 22 43 12 23 1009.4 1009.1 0.0
12/10:00am 10.9 4.2 3.5 60 3.3 WSW 28 43 15 23 1009.1 1008.8 0.0
12/09:30am 11.2 6.1 6.1 71 2.4 WSW 22 39 12 21 1008.8 1008.4 0.0
12/09:00am 10.0 5.7 7.1 82 1.4 W 19 30 10 16 1008.7 1008.3 0.0
12/08:30am 9.6 5.2 7.5 87 1.0 WSW 20 37 11 20 1008.3 1007.9 -
12/08:00am 8.7 4.8 7.2 90 0.7 W 17 28 9 15 1007.8 1007.4 -
12/05:00am 9.4 6.1 8.2 92 0.6 WSW 15 22 8 12 1005.1 1004.7 0.0
12/04:30am 9.7 5.6 8.6 93 0.5 WSW 20 39 11 21 1004.5 1004.1 0.0
12/04:00am 11.4 8.1 9.5 88 1.0 WSW 17 32 9 17 1003.8 1003.4 0.0
12/03:30am 12.8 9.8 10.7 87 1.1 WSW 17 30 9 16 1003.3 1002.9 0.0
12/03:00am 13.0 9.6 10.4 84 1.4 W 19 35 10 19 1002.8 1002.4 0.0
12/02:30am 13.4 8.8 9.5 77 2.0 W 24 44 13 24 1002.1 1001.8 0.0
12/02:00am 14.3 10.1 8.3 67 3.1 WSW 20 39 11 21 1001.8 1001.5 0.0
12/01:30am 16.8 13.0 6.0 49 5.3 W 15 37 8 20 1000.4 1000.0 0.0
12/01:00am 17.4 12.8 6.6 49 5.4 N 20 28 11 15 999.8 999.4 0.0
12/12:30am 16.6 14.0 7.8 56 4.5 NNW 11 17 6 9 1001.1 1000.7 0.0
12/12:00am 17.2 13.3 8.6 57 4.5 W 19 28 10 15 1002.1 1001.8 0.0
 
Date/Time
EDT
Temp
°C
App
Temp
°C
Dew
Point
°C
Rel
Hum
%
Delta-T
°C
Wind Press
QNH
hPa
Press
MSL
hPa
Rain since
9am
mm
Dir  Spd
km/h
Gust
km/h
Spd
kts
Gust
kts
11/11:56pm 17.2 13.7 8.6 57 4.5 W 17 28 9 15 1002.2 1001.9 0.0
11/11:30pm 22.2 14.2 0.7 24 9.9 WNW 32 50 17 27 1002.0 1001.7 0.0
11/11:08pm 24.2 15.8 -2.4 17 11.8 NNW 32 52 17 28 1000.4 1000.0 0.0
11/11:00pm 24.4 15.8 -2.2 17 11.9 NNW 33 50 18 27 1000.5 1000.1 0.0
11/10:38pm 24.9 16.5 -2.6 16 12.2 NNW 32 52 17 28 1000.6 1000.2 0.0
11/10:30pm 24.7 17.5 -2.0 17 11.9 NNW 26 43 14 23 1000.8 1000.4 0.0
11/10:00pm 24.1 17.1 -0.2 20 11.3 N 26 39 14 21 1000.7 1000.3 0.0
11/09:30pm 22.4 16.2 2.0 26 9.7 N 24 35 13 19 1001.2 1000.8 0.0
11/09:00pm 22.4 16.7 3.0 28 9.4 N 22 30 12 16 1001.7 1001.4 0.0
11/08:30pm 22.6 17.6 3.7 29 9.3 NNE 19 28 10 15 1002.0 1001.7 0.0
11/08:00pm 22.5 19.0 5.4 33 8.7 NNE 13 19 7 10 1003.5 1003.1 0.0
11/07:30pm 23.8 21.7 5.7 31 9.3 NNW 6 7 3 4 1004.7 1004.3 0.0
11/07:00pm 24.9 22.1 5.2 28 10.1 NNW 9 17 5 9 1004.6 1004.2 0.0
11/06:30pm 25.6 21.8 4.1 25 10.8 NW 13 19 7 10 1005.0 1004.6 0.0
11/06:00pm 26.5 22.5 4.9 25 11.1 NW 15 22 8 12 1005.1 1004.7 0.0
11/05:30pm 26.6 22.1 4.4 24 11.3 NW 17 28 9 15 1005.6 1005.3 0.0
11/05:00pm 26.9 21.9 4.6 24 11.5 NW 20 33 11 18 1005.9 1005.6 0.0
11/04:30pm 27.2 22.4 5.5 25 11.3 NW 20 33 11 18 1006.5 1006.2 0.0
11/04:00pm 26.6 21.7 5.0 25 11.2 NW 20 33 11 18 1007.0 1006.7 0.0
11/03:30pm 26.1 20.6 5.7 27 10.6 NNW 24 37 13 20 1007.4 1007.0 0.0
11/03:00pm 26.2 21.2 6.3 28 10.5 NW 22 41 12 22 1007.9 1007.5 0.0
11/02:30pm 25.3 19.1 6.0 29 10.0 NNW 28 43 15 23 1008.2 1007.8 0.0
11/02:00pm 24.8 19.3 7.4 33 9.3 NNW 26 48 14 26 1008.4 1008.0 0.0
11/01:59pm 25.0 19.2 8.1 34 9.1 NNW 28 48 15 26 1008.4 1008.0 0.0
11/01:30pm 23.8 17.5 7.4 35 8.7 NNW 30 46 16 25 1008.5 1008.1 0.0
11/01:00pm 23.2 17.2 8.5 39 7.9 NNW 30 41 16 22 1009.2 1008.9 0.0
11/12:30pm 22.0 16.7 8.5 42 7.2 NNW 26 43 14 23 1009.9 1009.6 0.0
11/12:00pm 22.1 15.8 7.5 39 7.7 NNW 30 48 16 26 1010.1 1009.8 0.0
11/11:52am 21.9 16.0 7.7 40 7.5 NNW 28 48 15 26 1010.0 1009.7 0.0
11/11:30am 20.3 14.4 7.3 43 6.7 NW 28 43 15 23 1010.3 1010.0 0.0
11/11:01am 20.3 14.1 6.3 40 7.1 NW 28 48 15 26 1010.7 1010.4 0.0
11/11:00am 20.3 13.7 5.9 39 7.3 NW 30 48 16 26 1010.6 1010.3 0.0
11/10:46am 20.0 13.2 5.3 38 7.3 NW 30 50 16 27 1010.7 1010.4 0.0
11/10:30am 19.8 14.1 6.5 42 6.7 NNW 26 43 14 23 1011.0 1010.7 0.0
11/10:00am 19.0 13.8 7.4 47 6.0 NNW 24 43 13 23 1011.3 1011.0 0.0
11/09:30am 17.1 11.1 6.9 51 5.1 NNW 28 41 15 22 1011.4 1011.1 0.0
11/09:25am 17.7 11.7 7.2 50 5.3 NNW 28 46 15 25 1011.4 1011.1 0.0
11/09:00am 17.5 12.8 7.8 53 5.0 NNW 22 37 12 20 1011.6 1011.2 0.0
11/08:30am 16.2 12.1 8.7 61 3.9 NNW 20 33 11 18 1011.6 1011.2 0.0
11/08:00am 14.7 10.1 8.0 64 3.4 NNW 22 37 12 20 1011.4 1011.1 0.0
11/07:30am 13.4 8.7 7.6 68 2.9 NNW 22 37 12 20 1011.1 1010.8 0.0
11/07:00am 12.2 7.3 7.1 71 2.5 NNW 22 33 12 18 1010.7 1010.4 0.0
11/06:30am 10.8 6.5 7.1 78 1.8 NNW 19 28 10 15 1010.7 1010.4 0.0
11/06:00am 9.3 6.7 7.9 91 0.7 N 11 13 6 7 1010.4 1010.1 0.0
11/05:30am 9.3 6.5 8.5 95 0.4 N 13 19 7 10 1010.6 1010.3 0.0
11/05:00am 8.6 6.5 8.3 98 0.1 N 9 13 5 7 1011.1 1010.8 0.0
11/04:30am 7.9 5.3 7.9 100 0.0 N 11 20 6 11 1011.1 1010.8 0.0
11/04:00am 7.1 4.3 7.1 100 0.0 N 11 13 6 7 1011.6 1011.2 0.0
11/03:30am 6.4 4.8 6.3 99 0.0 N 4 6 2 3 1012.2 1011.8 0.0
11/03:00am 7.3 5.5 7.2 99 0.0 N 6 7 3 4 1012.7 1012.4 0.0
11/02:30am 8.5 6.8 8.4 99 0.0 N 7 11 4 6 1012.9 1012.6 0.0
11/02:00am 8.4 6.7 8.3 99 0.0 N 7 9 4 5 1013.4 1013.1 0.0
11/01:30am 9.0 7.6 8.7 98 0.1 N 6 6 3 3 1014.0 1013.7 0.0
11/01:00am 9.6 8.3 9.3 98 0.2 NW 6 7 3 4 1014.6 1014.3 0.0
11/12:30am 9.7 9.2 9.4 98 0.2 NW 2 4 1 2 1015.2 1014.9 0.0
11/12:00am 9.9 9.1 9.6 98 0.2 NW 4 6 2 3 1015.7 1015.4 0.0
 
Date/Time
EDT
Temp
°C
App
Temp
°C
Dew
Point
°C
Rel
Hum
%
Delta-T
°C
Wind Press
QNH
hPa
Press
MSL
hPa
Rain since
9am
mm
Dir  Spd
km/h
Gust
km/h
Spd
kts
Gust
kts
10/11:30pm 10.3 9.9 9.8 97 0.3 WNW 2 4 1 2 1016.1 1015.7 0.0
10/11:00pm 9.9 9.0 9.3 96 0.3 WNW 4 6 2 3 1016.1 1015.7 0.0
10/10:30pm 11.0 10.0 10.4 96 0.3 W 6 7 3 4 1016.3 1016.0 0.0
10/10:00pm 10.9 9.8 10.1 95 0.4 W 6 7 3 4 1016.4 1016.1 0.0
10/09:30pm 10.8 10.0 9.7 93 0.6 NW 4 6 2 3 1016.2 1015.9 0.0
10/09:00pm 10.8 10.7 9.4 91 0.7 CALM 0 2 0 1 1016.4 1016.1 0.0
10/08:30pm 11.5 10.4 9.9 90 0.8 WSW 6 7 3 4 1016.2 1015.9 0.0
10/08:00pm 12.3 11.0 10.0 86 1.2 WSW 7 11 4 6 1016.4 1016.1 0.0
10/07:30pm 12.7 11.3 10.9 89 1.0 WNW 9 13 5 7 1016.2 1015.9 0.0
10/07:00pm 12.7 10.8 10.4 86 1.2 SW 11 17 6 9 1016.1 1015.7 0.0
10/06:30pm 13.3 11.1 10.8 85 1.3 WNW 13 22 7 12 1015.8 1015.5 0.0
10/06:00pm 13.3 11.1 10.7 84 1.4 W 13 19 7 10 1016.0 1015.6 0.0
10/05:30pm 13.7 11.5 10.7 82 1.6 WNW 13 20 7 11 1015.8 1015.5 0.0
10/05:00pm 13.0 10.3 10.2 83 1.5 W 15 22 8 12 1015.8 1015.5 0.0
10/04:30pm 13.4 11.2 10.8 84 1.4 WSW 13 24 7 13 1016.0 1015.6 0.0
10/04:00pm 14.1 11.5 9.3 73 2.5 WNW 13 19 7 10 1016.0 1015.6 0.0
10/03:30pm 14.1 11.5 10.7 80 1.8 W 15 24 8 13 1016.4 1016.1 0.0
10/03:00pm 13.7 9.9 9.2 74 2.3 W 19 26 10 14 1016.7 1016.4 0.0
10/02:30pm 13.4 10.2 9.8 79 1.9 W 17 28 9 15 1016.9 1016.6 0.0
10/02:00pm 14.3 10.9 9.3 72 2.6 WNW 17 26 9 14 1016.9 1016.6 0.0
10/01:30pm 13.4 9.6 9.1 75 2.2 W 19 32 10 17 1017.0 1016.7 0.0
10/01:00pm 13.6 10.7 9.5 76 2.1 W 15 24 8 13 1017.1 1016.8 0.0
10/12:30pm 12.9 8.7 8.4 74 2.3 W 20 26 11 14 1017.1 1016.8 0.0
10/12:00pm 13.6 9.9 9.3 75 2.2 W 19 30 10 16 1017.2 1016.9 0.0
10/11:30am 13.6 9.9 10.2 80 1.8 W 20 30 11 16 1017.2 1016.9 0.0
10/11:00am 11.7 7.5 9.6 87 1.1 W 22 35 12 19 1017.3 1017.0 0.0
10/10:30am 11.7 7.8 9.4 86 1.2 W 20 32 11 17 1017.3 1017.0 0.0
10/10:00am 11.1 6.5 9.7 91 0.7 W 24 39 13 21 1017.3 1017.0 0.0
10/09:30am 10.6 6.8 9.7 94 0.5 W 20 32 11 17 1017.3 1017.0 0.0
10/09:00am 10.2 6.6 9.7 97 0.3 W 19 35 10 19 1017.1 1016.8 0.4
10/08:30am 9.6 5.9 9.3 98 0.2 W 19 26 10 14 1017.0 1016.7 0.4
10/08:00am 9.4 5.6 9.1 98 0.1 W 19 32 10 17 1016.6 1016.3 0.4
10/07:30am 9.1 5.6 8.8 98 0.1 W 17 24 9 13 1016.2 1015.9 0.4
10/07:00am 9.1 5.2 8.8 98 0.1 W 19 28 10 15 1015.8 1015.5 0.4
10/06:30am 8.9 5.0 8.6 98 0.1 WNW 19 30 10 16 1015.4 1015.1 0.4
10/06:00am 8.9 4.8 8.6 98 0.1 W 20 30 11 16 1015.1 1014.8 0.4
10/05:30am 8.9 4.8 8.6 98 0.1 W 20 33 11 18 1015.0 1014.7 0.4
10/05:00am 8.9 5.0 8.5 97 0.2 W 19 28 10 15 1014.8 1014.5 0.4

Latest Capital City Observations: Canberra | Sydney | Melbourne | Brisbane | Adelaide | Perth | Hobart | Darwin

Other formats

Comma delimited format used in spreadsheet applications
http://www.bom.gov.au/fwo/IDV60901/IDV60901.94863.axf

JavaScript Object Notation format (JSON) in row-major order
http://www.bom.gov.au/fwo/IDV60901/IDV60901.94863.json

Data quality

Most of these data are generated automatically and are frequently updated. Quality checks on data are not normally performed. It is possible for incorrect values to appear. Refer to information at About Latest Weather Observations and please check the disclaimer before using these data.